Time;durP1;ratioP1;P1;durP2;ratioP2;P2;SDS_P1;SDS_P2;PMS_P1;PMS_P2;Temp;Humidity;BMP_temperature;BMP_pressure;BME280_temperature;BME280_humidity;BME280_pressure;Samples;Min_cycle;Max_cycle;Signal;HPM_P1;HPM_P2
2023/01/12 00:03:37;;;;;;;1.05;0.82;;;;;;;-146.19;100.00;65364.44;10624721;27;20061;-48
2023/01/12 00:08:57;;;;;;;1.27;0.80;;;;;;;-146.19;100.00;65364.44;10624640;27;20055;-47
2023/01/12 00:14:16;;;;;;;1.00;0.60;;;;;;;-146.19;100.00;65364.44;10638923;27;20043;-47
2023/01/12 00:19:37;;;;;;;1.88;1.10;;;;;;;-146.19;100.00;65364.44;10638171;27;20046;-49
2023/01/12 00:24:56;;;;;;;1.08;0.73;;;;;;;-146.19;100.00;65364.44;10638354;27;20055;-47
2023/01/12 00:30:16;;;;;;;1.33;0.68;;;;;;;-146.19;100.00;65364.44;10624508;27;20047;-48
2023/01/12 00:35:35;;;;;;;0.90;0.70;;;;;;;-146.19;100.00;65364.44;10638188;27;20039;-47
2023/01/12 00:40:55;;;;;;;2.42;0.80;;;;;;;-146.19;100.00;65364.44;10623839;27;20103;-48
2023/01/12 00:46:14;;;;;;;1.17;0.70;;;;;;;-146.19;100.00;65364.44;10623367;27;20063;-49
2023/01/12 00:51:34;;;;;;;1.15;0.70;;;;;;;-146.19;100.00;65364.44;10623575;27;20055;-49
2023/01/12 00:56:53;;;;;;;0.60;0.60;;;;;;;-146.19;100.00;65364.44;10624040;28;20062;-48
2023/01/12 01:02:13;;;;;;;0.70;0.57;;;;;;;-146.19;100.00;65364.44;10623813;28;20059;-49
2023/01/12 01:07:33;;;;;;;0.75;0.75;;;;;;;-146.19;100.00;65364.44;10623393;28;20074;-48
2023/01/12 01:12:53;;;;;;;0.82;0.70;;;;;;;-146.19;100.00;65364.44;10627122;27;20062;-48
2023/01/12 01:18:12;;;;;;;0.70;0.70;;;;;;;-146.19;100.00;65364.44;10631541;27;20498;-48
2023/01/12 01:23:35;;;;;;;1.00;0.70;;;;;;;-146.19;100.00;65364.44;10631622;27;20511;-49
2023/01/12 01:28:55;;;;;;;0.60;0.60;;;;;;;-146.19;100.00;65364.44;10631378;27;20059;-49
2023/01/12 01:34:15;;;;;;;1.25;0.60;;;;;;;-146.19;100.00;65364.44;10631479;27;20062;-50
2023/01/12 01:39:35;;;;;;;0.60;0.60;;;;;;;-146.19;100.00;65364.44;10631259;27;20104;-47
2023/01/12 01:44:56;;;;;;;0.85;0.68;;;;;;;-146.19;100.00;65364.44;10630357;27;20553;-48
2023/01/12 01:50:18;;;;;;;0.60;0.52;;;;;;;-146.19;100.00;65364.44;10614955;27;20092;-49
2023/01/12 01:55:57;;;;;;;0.50;0.50;;;;;;;-146.19;100.00;65364.44;10630086;27;20050;-47
2023/01/12 02:01:17;;;;;;;0.90;0.60;;;;;;;-146.19;100.00;65364.44;10615177;27;20050;-47
2023/01/12 02:06:36;;;;;;;0.57;0.57;;;;;;;-146.19;100.00;65364.44;10630358;27;20055;-50
2023/01/12 02:17:55;;;;;;;0.85;0.60;;;;;;;-146.19;100.00;65364.44;10629331;27;20392;-46
2023/01/12 02:23:23;;;;;;;0.88;0.60;;;;;;;-146.19;100.00;65364.44;10629022;27;20437;-49
2023/01/12 02:29:01;;;;;;;0.60;0.53;;;;;;;-146.19;100.00;65364.44;10643149;27;20050;-47
2023/01/12 02:34:33;;;;;;;1.00;0.50;;;;;;;-146.19;100.00;65364.44;10642875;27;20531;-48
2023/01/12 02:39:58;;;;;;;0.50;0.50;;;;;;;-146.19;100.00;65364.44;10642530;27;20039;-47
2023/01/12 02:45:41;;;;;;;0.80;0.65;;;;;;;-146.19;100.00;65364.44;10613016;27;20464;-47
2023/01/12 02:51:19;;;;;;;0.50;0.50;;;;;;;-146.19;100.00;65364.44;10628044;27;20096;-49
2023/01/12 02:56:45;;;;;;;0.40;0.40;;;;;;;-146.19;100.00;65364.44;10626656;27;20064;-49
2023/01/12 03:02:10;;;;;;;1.27;0.60;;;;;;;-146.19;100.00;65364.44;10612755;27;20043;-50
2023/01/12 03:07:46;;;;;;;0.55;0.52;;;;;;;-146.19;100.00;65364.44;10627832;27;20491;-48
2023/01/12 03:13:09;;;;;;;0.50;0.50;;;;;;;-146.19;100.00;65364.44;10627388;27;20420;-49
2023/01/12 03:18:33;;;;;;;0.60;0.55;;;;;;;-146.19;100.00;65364.44;10611930;27;20113;-48
2023/01/12 03:24:01;;;;;;;0.50;0.50;;;;;;;-146.19;100.00;65364.44;10627169;27;20047;-48
2023/01/12 03:29:34;;;;;;;0.60;0.50;;;;;;;-146.19;100.00;65364.44;10640609;27;20096;-48
2023/01/12 03:34:54;;;;;;;0.50;0.50;;;;;;;-146.19;100.00;65364.44;10624964;27;20054;-47
2023/01/12 03:40:20;;;;;;;0.50;0.50;;;;;;;-146.19;100.00;65364.44;10626313;27;20043;-48
2023/01/12 03:46:07;;;;;;;0.40;0.40;;;;;;;-146.19;100.00;65364.44;10610270;27;20059;-48
2023/01/12 03:51:36;;;;;;;0.50;0.50;;;;;;;-146.19;100.00;65364.44;10639626;27;20039;-49
2023/01/12 03:56:55;;;;;;;0.50;0.50;;;;;;;-146.19;100.00;65364.44;10625786;27;20103;-47
2023/01/12 04:02:15;;;;;;;0.50;0.50;;;;;;;-146.19;100.00;65364.44;10610045;27;20051;-46
2023/01/12 04:07:34;;;;;;;0.40;0.40;;;;;;;-146.19;100.00;65364.44;10625287;27;20104;-48
2023/01/12 04:12:54;;;;;;;0.40;0.40;;;;;;;-146.19;100.00;65364.44;10625197;27;20047;-46
2023/01/12 04:18:13;;;;;;;0.40;0.40;;;;;;;-146.19;100.00;65364.44;10638666;27;20091;-47
2023/01/12 04:23:33;;;;;;;0.45;0.45;;;;;;;-146.19;100.00;65364.44;10624928;27;20047;-47
2023/01/12 04:28:52;;;;;;;0.95;0.50;;;;;;;-146.19;100.00;65364.44;10624695;27;20047;-47
2023/01/12 04:34:11;;;;;;;0.50;0.50;;;;;;;-146.19;100.00;65364.44;10624482;27;20058;-48
2023/01/12 04:39:31;;;;;;;0.50;0.50;;;;;;;-146.19;100.00;65364.44;10623624;27;20540;-48
2023/01/12 04:44:50;;;;;;;0.85;0.60;;;;;;;-146.19;100.00;65364.44;10623818;27;20047;-49
2023/01/12 04:50:10;;;;;;;0.30;0.30;;;;;;;-146.19;100.00;65364.44;10623000;27;20440;-49
2023/01/12 04:55:30;;;;;;;0.40;0.40;;;;;;;-146.19;100.00;65364.44;10623459;28;20556;-48
2023/01/12 05:00:50;;;;;;;0.35;0.35;;;;;;;-146.19;100.00;65364.44;10623934;28;20062;-50
2023/01/12 05:06:09;;;;;;;0.43;0.40;;;;;;;-146.19;100.00;65364.44;10623963;28;20096;-48
2023/01/12 05:11:29;;;;;;;1.05;0.60;;;;;;;-146.19;100.00;65364.44;10622869;28;20441;-47
2023/01/12 05:16:49;;;;;;;0.60;0.50;;;;;;;-146.19;100.00;65364.44;10637181;27;20044;-46
2023/01/12 05:22:08;;;;;;;0.98;0.45;;;;;;;-146.19;100.00;65364.44;10637214;27;20043;-46
2023/01/12 05:27:28;;;;;;;0.30;0.30;;;;;;;-146.19;100.00;65364.44;10622580;28;20051;-49
2023/01/12 05:32:47;;;;;;;0.60;0.45;;;;;;;18.90;52.75;96888.44;10636759;27;20487;-45
2023/01/12 05:38:06;;;;;;;0.60;0.50;;;;;;;18.92;52.66;96888.94;10623069;28;20059;-47
2023/01/12 05:44:12;;;;;;;0.60;0.40;;;;;;;18.93;52.83;96895.13;10622677;28;20050;-50
2023/01/12 05:49:06;;;;;;;3.30;0.47;;;;;;;18.94;52.83;96894.81;10618271;28;20062;-47
2023/01/12 05:54:26;;;;;;;0.40;0.40;;;;;;;18.94;52.85;96892.09;10636551;27;20043;-47
2023/01/12 05:59:45;;;;;;;0.40;0.40;;;;;;;18.95;52.84;96882.09;10625213;27;20528;-46
2023/01/12 06:05:08;;;;;;;0.55;0.50;;;;;;;18.97;52.83;96885.25;10630406;27;20051;-49
2023/01/12 06:10:28;;;;;;;2.30;0.52;;;;;;;18.99;52.51;96896.53;10629771;27;20124;-47
2023/01/12 06:15:47;;;;;;;4.47;1.05;;;;;;;19.00;52.60;96898.13;10629560;27;20058;-48
2023/01/12 06:21:08;;;;;;;7.55;1.60;;;;;;;19.01;52.57;96897.00;10629710;27;20043;-47
2023/01/12 06:26:27;;;;;;;5.88;1.80;;;;;;;19.03;52.64;96896.69;10629534;27;20108;-48
2023/01/12 06:31:46;;;;;;;7.43;2.03;;;;;;;19.03;52.67;96889.38;10642943;27;20043;-48
2023/01/12 06:37:07;;;;;;;14.38;2.30;;;;;;;19.05;52.67;96892.59;10629009;27;20054;-48
2023/01/12 06:42:30;;;;;;;5.50;1.83;;;;;;;19.05;52.71;96887.19;10628508;27;20403;-47
2023/01/12 06:47:50;;;;;;;7.75;2.17;;;;;;;19.07;52.57;96881.44;10627780;27;20533;-47
2023/01/12 06:53:10;;;;;;;8.18;2.00;;;;;;;19.08;52.57;96886.53;10627944;27;20047;-47
2023/01/12 06:58:29;;;;;;;7.07;2.22;;;;;;;-146.19;100.00;65364.44;10628180;27;20058;-48
2023/01/12 07:03:49;;;;;;;7.80;2.20;;;;;;;-146.19;100.00;65364.44;10640981;27;20101;-48
2023/01/12 07:09:08;;;;;;;6.35;2.10;;;;;;;-146.19;100.00;65364.44;10627876;27;20059;-49
2023/01/12 07:14:28;;;;;;;5.20;1.92;;;;;;;-146.19;100.00;65364.44;10627668;27;20062;-50
2023/01/12 07:19:47;;;;;;;6.28;2.40;;;;;;;-146.19;100.00;65364.44;10627236;27;20062;-48
2023/01/12 07:25:08;;;;;;;4.45;1.60;;;;;;;-146.19;100.00;65364.44;10627026;27;20063;-48
2023/01/12 07:30:27;;;;;;;5.65;1.98;;;;;;;-146.19;100.00;65364.44;10625833;27;20054;-49
2023/01/12 07:35:46;;;;;;;4.63;1.60;;;;;;;-146.19;100.00;65364.44;10640464;27;20043;-47
2023/01/12 07:42:21;;;;;;;7.03;2.38;;;;;;;-146.19;100.00;65364.44;10626626;27;20095;-47
2023/01/12 07:46:48;;;;;;;5.78;1.60;;;;;;;-146.19;100.00;65364.44;10610124;27;20063;-46
2023/01/12 07:52:10;;;;;;;4.20;1.70;;;;;;;-146.19;100.00;65364.44;10625875;27;20051;-49
2023/01/12 07:57:29;;;;;;;4.13;1.63;;;;;;;-146.19;100.00;65364.44;10625709;27;20123;-48
2023/01/12 08:02:50;;;;;;;2.92;1.70;;;;;;;-146.19;100.00;65364.44;10625645;27;20048;-49
2023/01/12 08:08:09;;;;;;;4.07;1.60;;;;;;;-146.19;100.00;65364.44;10625617;27;20403;-48
2023/01/12 08:13:28;;;;;;;7.38;1.38;;;;;;;-146.19;100.00;65364.44;10638817;27;20035;-47
2023/01/12 08:18:53;;;;;;;4.55;1.85;;;;;;;-146.19;100.00;65364.44;10624912;27;20051;-47
2023/01/12 08:24:17;;;;;;;4.40;1.40;;;;;;;-146.19;100.00;65364.44;10608282;27;20521;-46
2023/01/12 08:29:43;;;;;;;3.55;1.30;;;;;;;-146.19;100.00;65364.44;10624369;27;20445;-48
2023/01/12 08:35:03;;;;;;;4.10;1.60;;;;;;;-146.19;100.00;65364.44;10624515;27;20073;-48
2023/01/12 08:40:23;;;;;;;2.95;1.20;;;;;;;-146.19;100.00;65364.44;10624375;27;20058;-46
2023/01/12 08:45:42;;;;;;;3.83;1.40;;;;;;;-146.19;100.00;65364.44;10623818;27;20055;-47
2023/01/12 08:51:07;;;;;;;1.83;1.20;;;;;;;-146.19;100.00;65364.44;10637777;27;20039;-47
2023/01/12 08:56:26;;;;;;;2.72;1.40;;;;;;;-146.19;100.00;65364.44;10637711;27;20485;-49
2023/01/12 09:01:46;;;;;;;3.80;1.20;;;;;;;-146.19;100.00;65364.44;10623838;28;20047;-47
2023/01/12 09:07:10;;;;;;;2.67;1.25;;;;;;;-146.19;100.00;65364.44;10637613;27;20499;-48
2023/01/12 09:12:29;;;;;;;3.00;1.20;;;;;;;-146.19;100.00;65364.44;10623762;28;20109;-47
2023/01/12 09:17:52;;;;;;;3.45;1.35;;;;;;;-146.19;100.00;65364.44;10623376;28;20047;-50
2023/01/12 09:23:12;;;;;;;2.05;1.17;;;;;;;-146.19;100.00;65364.44;10623467;28;20070;-50
2023/01/12 09:28:32;;;;;;;2.55;1.30;;;;;;;-146.19;100.00;65364.44;10623005;28;20051;-50
2023/01/12 09:33:53;;;;;;;4.95;1.73;;;;;;;-146.19;100.00;65364.44;10624901;27;20043;-48
2023/01/12 09:39:15;;;;;;;1.77;1.20;;;;;;;-146.19;100.00;65364.44;10631467;27;20055;-47
2023/01/12 09:50:21;;;;;;;3.15;1.35;;;;;;;19.28;44.13;96847.28;10618365;27;20051;-47
2023/01/12 09:55:49;;;;;;;2.78;1.30;;;;;;;19.46;44.30;96839.91;10644252;27;20410;-49
2023/01/12 10:01:11;;;;;;;4.68;1.30;;;;;;;19.56;44.50;96836.06;10614986;27;20383;-47
2023/01/12 10:06:31;;;;;;;2.47;1.17;;;;;;;19.66;44.93;96824.94;10629933;27;20540;-49
2023/01/12 10:11:55;;;;;;;2.00;1.20;;;;;;;19.70;44.95;96825.06;10630267;27;20055;-49
2023/01/12 10:17:32;;;;;;;1.90;1.00;;;;;;;19.74;45.11;96818.72;10614407;27;20055;-49
2023/01/12 10:22:55;;;;;;;2.20;1.00;;;;;;;19.78;45.25;96813.47;10614375;27;20059;-49
2023/01/12 10:28:18;;;;;;;3.70;1.40;;;;;;;19.82;45.43;96808.22;10613580;27;20080;-49
2023/01/12 10:33:40;;;;;;;2.35;1.20;;;;;;;19.84;45.52;96804.06;10629300;27;20092;-47
2023/01/12 10:39:02;;;;;;;2.55;1.13;;;;;;;-146.19;100.00;65364.44;10642614;27;20555;-47
2023/01/12 10:44:22;;;;;;;3.47;1.17;;;;;;;-146.19;100.00;65364.44;10626990;27;20051;-48
2023/01/12 10:49:41;;;;;;;3.10;0.85;;;;;;;-146.19;100.00;65364.44;10612099;27;20080;-47
2023/01/12 10:55:00;;;;;;;2.03;1.13;;;;;;;-146.19;100.00;65364.44;10641401;27;20039;-47
2023/01/12 11:00:23;;;;;;;2.55;1.20;;;;;;;-146.19;100.00;65364.44;10627195;27;20055;-48
2023/01/12 11:05:43;;;;;;;3.97;1.08;;;;;;;-146.19;100.00;65364.44;10627593;27;20414;-54
2023/01/12 11:11:30;;;;;;;2.05;1.00;;;;;;;-146.19;100.00;65364.44;10627784;27;20043;-54
2023/01/12 11:16:50;;;;;;;4.40;0.98;;;;;;;-146.19;100.00;65364.44;10611530;27;20043;-54
2023/01/12 11:22:16;;;;;;;2.00;0.80;;;;;;;-146.19;100.00;65364.44;10641018;27;20042;-45
2023/01/12 11:27:40;;;;;;;3.78;1.02;;;;;;;-146.19;100.00;65364.44;10626567;27;20055;-45
2023/01/12 11:33:17;;;;;;;2.47;1.00;;;;;;;-146.19;100.00;65364.44;10640524;27;20050;-55
2023/01/12 11:38:41;;;;;;;1.70;0.88;;;;;;;-146.19;100.00;65364.44;10626761;27;20058;-46
2023/01/12 11:44:25;;;;;;;1.65;1.00;;;;;;;-146.19;100.00;65364.44;10610361;27;20415;-46
2023/01/12 11:49:55;;;;;;;1.92;0.80;;;;;;;-146.19;100.00;65364.44;10626418;27;20402;-47
2023/01/12 11:55:15;;;;;;;1.63;0.88;;;;;;;-146.19;100.00;65364.44;10625789;27;20051;-47
2023/01/12 12:00:41;;;;;;;1.45;0.88;;;;;;;-146.19;100.00;65364.44;10609622;27;20510;-45
2023/01/12 12:06:40;;;;;;;2.38;0.73;;;;;;;-146.19;100.00;65364.44;10625161;27;20050;-45
2023/01/12 12:12:03;;;;;;;116.75;26.55;;;;;;;-146.19;100.00;65364.44;10610027;27;20403;-46
2023/01/12 12:17:28;;;;;;;99.03;26.23;;;;;;;-146.19;100.00;65364.44;10625326;27;20051;-47
2023/01/12 12:22:54;;;;;;;105.07;26.20;;;;;;;-146.19;100.00;65364.44;10638752;27;20050;-47
2023/01/12 12:28:17;;;;;;;91.07;24.38;;;;;;;-146.19;100.00;65364.44;10624287;27;20058;-47
2023/01/12 12:33:52;;;;;;;82.68;22.08;;;;;;;-146.19;100.00;65364.44;10624678;27;20388;-47
2023/01/12 12:39:42;;;;;;;66.18;18.83;;;;;;;-146.19;100.00;65364.44;10609151;27;20051;-46
2023/01/12 12:45:16;;;;;;;62.88;16.13;;;;;;;-146.19;100.00;65364.44;10608642;27;20063;-47
2023/01/12 12:50:42;;;;;;;53.22;14.50;;;;;;;-146.19;100.00;65364.44;10623884;27;20051;-46
2023/01/12 12:56:04;;;;;;;41.63;11.55;;;;;;;-146.19;100.00;65364.44;10623451;27;20085;-46
2023/01/12 13:01:25;;;;;;;31.38;8.88;;;;;;;-146.19;100.00;65364.44;10624154;28;20122;-48
2023/01/12 13:06:47;;;;;;;29.75;8.32;;;;;;;-146.19;100.00;65364.44;10623830;27;20410;-48
2023/01/12 13:12:07;;;;;;;14.75;4.80;;;;;;;-146.19;100.00;65364.44;10617258;27;20051;-46
2023/01/12 13:17:30;;;;;;;17.45;5.10;;;;;;;-146.19;100.00;65364.44;10632371;27;20055;-48
2023/01/12 13:22:49;;;;;;;14.20;5.22;;;;;;;-146.19;100.00;65364.44;10631550;27;20061;-46
2023/01/12 13:28:17;;;;;;;19.23;5.95;;;;;;;-146.19;100.00;65364.44;10631708;27;20051;-45
2023/01/12 13:33:37;;;;;;;15.52;5.70;;;;;;;-146.19;100.00;65364.44;10631353;27;20047;-45
2023/01/12 13:39:02;;;;;;;15.55;4.90;;;;;;;-146.19;100.00;65364.44;10631531;27;20147;-46
2023/01/12 13:44:33;;;;;;;15.77;4.88;;;;;;;-146.19;100.00;65364.44;10624989;27;20445;-47
2023/01/12 13:49:56;;;;;;;12.65;4.30;;;;;;;-146.19;100.00;65364.44;10643506;27;20043;-47
2023/01/12 13:55:21;;;;;;;12.05;3.97;;;;;;;-146.19;100.00;65364.44;10613860;27;20047;-49
2023/01/12 14:00:41;;;;;;;15.40;4.55;;;;;;;-146.19;100.00;65364.44;10629483;27;20047;-47
2023/01/12 14:06:20;;;;;;;11.15;4.10;;;;;;;-146.19;100.00;65364.44;10642995;27;20096;-45
2023/01/12 14:11:52;;;;;;;;;;;;;;;-146.19;100.00;65364.44;10614049;27;20104;-46
2023/01/12 14:23:26;;;;;;;10.35;3.97;;;;;;;-146.19;100.00;65364.44;10615029;27;20054;-46
2023/01/12 14:28:47;;;;;;;11.05;3.75;;;;;;;-146.19;100.00;65364.44;10629629;27;20059;-49
2023/01/12 14:34:45;;;;;;;10.25;3.50;;;;;;;-146.19;100.00;65364.44;10613472;27;20043;-46
2023/01/12 14:40:05;;;;;;;9.02;3.50;;;;;;;-146.19;100.00;65364.44;10627875;27;20103;-49
2023/01/12 14:51:40;;;;;;;9.80;3.83;;;;;;;-146.19;100.00;65364.44;10627321;27;20047;-48
2023/01/12 14:57:02;;;;;;;11.77;3.25;;;;;;;-146.19;100.00;65364.44;10521822;27;20052;-48
2023/01/12 15:02:32;;;;;;;11.57;3.70;;;;;;;-146.19;100.00;65364.44;10627319;27;20070;-47
2023/01/12 15:08:06;;;;;;;9.98;3.70;;;;;;;-146.19;100.00;65364.44;10628072;27;20054;-48
2023/01/12 15:13:27;;;;;;;10.30;3.40;;;;;;;-146.19;100.00;65364.44;10626720;27;20520;-49
2023/01/12 15:30:17;;;;;;;8.73;3.50;;;;;;;-146.19;100.00;65364.44;10613341;27;20197;-47
2023/01/12 15:35:40;;;;;;;8.52;3.75;;;;;;;-146.19;100.00;65364.44;10608238;27;20421;-47
2023/01/12 15:40:59;;;;;;;10.32;3.35;;;;;;;-146.19;100.00;65364.44;10626757;27;20449;-47
2023/01/12 15:46:19;;;;;;;10.73;3.95;;;;;;;-146.19;100.00;65364.44;10630283;27;20406;-48
2023/01/12 15:51:40;;;;;;;9.65;3.78;;;;;;;-146.19;100.00;65364.44;10610092;27;20495;-48
2023/01/12 15:57:00;;;;;;;10.07;3.83;;;;;;;-146.19;100.00;65364.44;10625397;27;20051;-46
2023/01/12 16:02:23;;;;;;;8.00;3.47;;;;;;;-146.19;100.00;65364.44;10624292;27;20059;-47
2023/01/12 16:07:43;;;;;;;8.45;3.15;;;;;;;-146.19;100.00;65364.44;10608850;27;20074;-48
2023/01/12 16:13:08;;;;;;;8.43;3.65;;;;;;;-146.19;100.00;65364.44;10637713;27;20062;-48
2023/01/12 16:18:28;;;;;;;6.85;2.95;;;;;;;-146.19;100.00;65364.44;10608900;27;20066;-46
2023/01/12 16:23:47;;;;;;;8.02;3.28;;;;;;;-146.19;100.00;65364.44;10623956;27;20047;-49
2023/01/12 16:29:07;;;;;;;10.02;3.13;;;;;;;-146.19;100.00;65364.44;10638217;27;20043;-49
2023/01/12 16:34:27;;;;;;;8.35;3.50;;;;;;;-146.19;100.00;65364.44;10624409;27;20054;-48
2023/01/12 16:39:46;;;;;;;8.50;3.35;;;;;;;-146.19;100.00;65364.44;10637807;27;20047;-49
2023/01/12 16:45:06;;;;;;;6.60;2.88;;;;;;;-146.19;100.00;65364.44;10631201;27;20054;-47
2023/01/12 16:50:26;;;;;;;8.30;2.95;;;;;;;-146.19;100.00;65364.44;10637716;27;20043;-46
2023/01/12 16:55:45;;;;;;;6.97;2.97;;;;;;;-146.19;100.00;65364.44;10624027;27;20066;-48
2023/01/12 17:01:10;;;;;;;7.05;3.00;;;;;;;-146.19;100.00;65364.44;10637643;27;20047;-47
2023/01/12 17:06:30;;;;;;;7.38;3.10;;;;;;;-146.19;100.00;65364.44;10623164;28;20517;-47
2023/01/12 17:11:50;;;;;;;8.48;3.17;;;;;;;-146.19;100.00;65364.44;10623559;28;20119;-46
2023/01/12 17:17:10;;;;;;;8.15;2.70;;;;;;;-146.19;100.00;65364.44;10637206;27;20050;-48
2023/01/12 17:22:31;;;;;;;5.30;2.95;;;;;;;-146.19;100.00;65364.44;10623071;28;20058;-49
2023/01/12 17:27:51;;;;;;;8.75;2.72;;;;;;;-146.19;100.00;65364.44;10636975;27;20501;-47
2023/01/12 17:33:10;;;;;;;5.82;2.47;;;;;;;-146.19;100.00;65364.44;10636931;27;20514;-46
2023/01/12 17:38:34;;;;;;;6.32;2.60;;;;;;;-146.19;100.00;65364.44;10622922;28;20057;-47
2023/01/12 17:43:53;;;;;;;3.53;1.90;;;;;;;-146.19;100.00;65364.44;10622316;28;20047;-47
2023/01/12 17:49:13;;;;;;;5.28;2.08;;;;;;;-146.19;100.00;65364.44;10636509;27;20598;-46
2023/01/12 17:54:32;;;;;;;5.72;2.38;;;;;;;-146.19;100.00;65364.44;10622969;27;20054;-47
2023/01/12 17:59:52;;;;;;;6.25;2.72;;;;;;;-146.19;100.00;65364.44;10613550;27;20493;-46
2023/01/12 18:05:12;;;;;;;5.55;2.35;;;;;;;-146.19;100.00;65364.44;10628827;27;20087;-46
2023/01/12 18:10:31;;;;;;;4.97;2.33;;;;;;;-146.19;100.00;65364.44;10629193;27;20066;-46
2023/01/12 18:15:51;;;;;;;4.47;2.03;;;;;;;-146.19;100.00;65364.44;10628957;27;20097;-46
2023/01/12 18:21:13;;;;;;;4.35;2.03;;;;;;;-146.19;100.00;65364.44;10642379;27;20047;-47
2023/01/12 18:26:34;;;;;;;4.20;2.05;;;;;;;-146.19;100.00;65364.44;10628473;27;20062;-49
2023/01/12 18:31:54;;;;;;;4.88;2.13;;;;;;;-146.19;100.00;65364.44;10628079;27;20127;-47
2023/01/12 18:37:13;;;;;;;5.07;2.20;;;;;;;-146.19;100.00;65364.44;10628228;27;20058;-48
2023/01/12 18:42:53;;;;;;;5.30;1.90;;;;;;;-146.19;100.00;65364.44;10642626;27;20512;-45
2023/01/12 18:48:23;;;;;;;5.90;2.30;;;;;;;-146.19;100.00;65364.44;10642472;27;20064;-47
2023/01/12 18:53:42;;;;;;;6.60;2.08;;;;;;;-146.19;100.00;65364.44;10628504;27;20092;-49
2023/01/12 18:59:03;;;;;;;3.75;1.95;;;;;;;-146.19;100.00;65364.44;10641995;27;20047;-49
2023/01/12 19:04:36;;;;;;;4.95;2.10;;;;;;;-146.19;100.00;65364.44;10627793;27;20051;-48
2023/01/12 19:09:56;;;;;;;3.88;1.63;;;;;;;-146.19;100.00;65364.44;10627882;27;20051;-46
2023/01/12 19:32:11;;;;;;;;;;;;;;;-146.19;100.00;65364.44;10626162;27;20112;-48
2023/01/12 19:37:31;;;;;;;5.15;1.55;;;;;;;-146.19;100.00;65364.44;10625661;27;19919;-52
2023/01/12 19:48:29;;;;;;;10.77;1.80;;;;;;;-146.19;100.00;65364.44;10624691;27;20051;-50
2023/01/12 19:53:49;;;;;;;5.00;1.52;;;;;;;-146.19;100.00;65364.44;10625011;27;20047;-48
2023/01/12 19:59:08;;;;;;;6.40;1.73;;;;;;;-146.19;100.00;65364.44;10624610;27;20059;-49
2023/01/12 20:04:27;;;;;;;8.27;1.80;;;;;;;-146.19;100.00;65364.44;10624387;27;20486;-47
2023/01/12 20:09:47;;;;;;;6.75;2.00;;;;;;;-146.19;100.00;65364.44;10609978;27;20047;-50
2023/01/12 20:15:07;;;;;;;8.40;1.90;;;;;;;-146.19;100.00;65364.44;10638129;27;20035;-49
2023/01/12 20:20:27;;;;;;;5.60;1.67;;;;;;;-146.19;100.00;65364.44;10637879;27;20039;-48
2023/01/12 20:25:47;;;;;;;7.18;1.90;;;;;;;-146.19;100.00;65364.44;10624994;27;20054;-45
2023/01/12 20:31:12;;;;;;;3.17;1.70;;;;;;;-146.19;100.00;65364.44;10638200;27;20046;-48
2023/01/12 20:36:31;;;;;;;4.28;1.60;;;;;;;-146.19;100.00;65364.44;10636868;27;20552;-54
2023/01/12 20:41:51;;;;;;;5.22;1.80;;;;;;;-146.19;100.00;65364.44;10638022;27;20039;-47
2023/01/12 20:47:10;;;;;;;4.25;1.80;;;;;;;-146.19;100.00;65364.44;10622807;27;20096;-52
2023/01/12 20:52:30;;;;;;;3.95;1.60;;;;;;;-146.19;100.00;65364.44;10624178;27;20047;-56
2023/01/12 20:57:49;;;;;;;3.92;1.85;;;;;;;-146.19;100.00;65364.44;10623742;27;20058;-54
2023/01/12 21:03:09;;;;;;;6.85;1.63;;;;;;;-146.19;100.00;65364.44;10636486;27;20054;-54
2023/01/12 21:08:29;;;;;;;3.25;1.30;;;;;;;-146.19;100.00;65364.44;10606741;28;20491;-54
2023/01/12 21:13:48;;;;;;;3.00;1.42;;;;;;;-146.19;100.00;65364.44;10622593;28;20074;-55
2023/01/12 21:19:07;;;;;;;4.78;1.52;;;;;;;-146.19;100.00;65364.44;10622889;28;20411;-56
2023/01/12 21:24:27;;;;;;;4.47;1.55;;;;;;;19.84;45.52;96804.06;10623599;28;20051;-57
2023/01/12 21:29:48;;;;;;;3.45;1.30;;;;;;;-146.19;100.00;65364.44;10626610;27;20066;-48
2023/01/12 21:35:08;;;;;;;2.88;1.52;;;;;;;20.33;51.99;96458.09;10631143;27;20518;-48
2023/01/12 21:40:27;;;;;;;4.13;1.40;;;;;;;-146.19;100.00;65364.44;10645156;27;20035;-49
2023/01/12 21:45:50;;;;;;;2.72;1.20;;;;;;;20.33;51.99;96458.09;10630542;27;20055;-49
2023/01/12 21:51:15;;;;;;;3.80;1.20;;;;;;;-146.19;100.00;65364.44;10630288;27;20055;-53
2023/01/12 21:56:35;;;;;;;3.15;1.40;;;;;;;-146.19;100.00;65364.44;10615631;27;20047;-52
2023/01/12 22:01:54;;;;;;;2.25;1.10;;;;;;;-146.19;100.00;65364.44;10644373;27;20590;-52
2023/01/12 22:07:13;;;;;;;2.90;1.30;;;;;;;-146.19;100.00;65364.44;10644247;27;20046;-52
2023/01/12 22:12:33;;;;;;;4.05;1.30;;;;;;;-146.19;100.00;65364.44;10629996;27;20088;-50
2023/01/12 22:17:55;;;;;;;3.65;1.52;;;;;;;-146.19;100.00;65364.44;10643469;27;20035;-48
2023/01/12 22:23:15;;;;;;;2.25;1.27;;;;;;;-146.19;100.00;65364.44;10629916;27;20069;-48
2023/01/12 22:28:35;;;;;;;4.70;1.20;;;;;;;-146.19;100.00;65364.44;10629726;27;20055;-48
2023/01/12 22:34:05;;;;;;;1.83;0.93;;;;;;;-146.19;100.00;65364.44;10629458;27;20047;-48
2023/01/12 22:39:25;;;;;;;2.20;1.20;;;;;;;-146.19;100.00;65364.44;10642890;27;20376;-49
2023/01/12 22:44:44;;;;;;;2.42;1.30;;;;;;;-146.19;100.00;65364.44;10628481;27;20062;-50
2023/01/12 22:50:05;;;;;;;2.75;1.27;;;;;;;-146.19;100.00;65364.44;10628793;27;20059;-49
2023/01/12 22:55:25;;;;;;;2.00;1.10;;;;;;;20.11;52.98;96439.59;10628565;27;20043;-48
2023/01/12 23:00:44;;;;;;;2.15;1.27;;;;;;;20.09;52.94;96441.84;10642125;27;20038;-47
2023/01/12 23:06:04;;;;;;;1.75;1.20;;;;;;;20.07;53.14;96428.69;10628336;27;20077;-48
2023/01/12 23:11:25;;;;;;;1.05;0.90;;;;;;;20.07;53.15;96425.16;10627608;27;20116;-49
2023/01/12 23:16:45;;;;;;;2.33;1.40;;;;;;;20.06;53.28;96420.91;10627823;27;20051;-48
2023/01/12 23:22:04;;;;;;;1.83;1.00;;;;;;;20.04;53.32;96412.34;10627607;27;20047;-49
2023/01/12 23:27:23;;;;;;;1.63;0.90;;;;;;;20.03;53.35;96426.97;10627404;27;20055;-51
2023/01/12 23:32:43;;;;;;;1.88;1.10;;;;;;;20.00;53.39;96417.63;10627018;27;20047;-49
2023/01/12 23:38:03;;;;;;;1.83;1.17;;;;;;;20.00;53.36;96419.53;10626398;27;20047;-50
2023/01/12 23:43:23;;;;;;;1.65;1.00;;;;;;;20.00;53.55;96419.53;10635816;27;20065;-49
2023/01/12 23:48:43;;;;;;;1.52;1.00;;;;;;;19.97;53.58;96406.69;10626334;27;20058;-50
2023/01/12 23:54:02;;;;;;;2.08;1.00;;;;;;;19.95;53.59;96410.53;10625034;27;20372;-48
2023/01/12 23:59:22;;;;;;;1.08;0.82;;;;;;;19.93;53.72;96418.19;10624189;27;20039;-49
